Time;durP1;ratioP1;P1;durP2;ratioP2;P2;SDS_P1;SDS_P2;PMS_P1;PMS_P2;Temp;Humidity;BMP_temperature;BMP_pressure;BME280_temperature;BME280_humidity;BME280_pressure;Samples;Min_cycle;Max_cycle;Signal;HPM_P1;HPM_P2
2023/06/07 00:01:56;;;;;;;;;;;;;;;;;;5076906;28;872;-67
2023/06/07 00:04:21;;;;;;;;;;;;;;;;;;5076822;28;1507;-67
2023/06/07 00:06:47;;;;;;;;;;;;;;;;;;5059655;28;1224;-67
2023/06/07 00:09:12;;;;;;;;;;;;;;;;;;5095382;28;892;-67
2023/06/07 00:11:37;;;;;;;;;;;;;;;;;;5093859;28;927;-68
2023/06/07 00:14:03;;;;;;;;;;;;;;;;;;5092573;28;833;-67
2023/06/07 00:16:28;;;;;;;;;;;;;;;;;;5093872;28;856;-67
2023/06/07 00:18:54;;;;;;;;;;;;;;;;;;5094191;28;1973;-67
2023/06/07 00:21:20;;;;;;;;;;;;;;;;;;5093619;28;876;-67
2023/06/07 00:23:48;;;;;;;;;;;;;;;;;;5093551;28;872;-67
2023/06/07 00:26:13;;;;;;;;;;;;;;;;;;5059519;28;1358;-67
2023/06/07 00:28:39;;;;;;;;;;;;;;;;;;5094119;28;813;-67
2023/06/07 00:31:04;;;;;;;;;;;;;;;;;;5092896;28;955;-67
2023/06/07 00:33:29;;;;;;;;;;;;;;;;;;5093518;28;872;-67
2023/06/07 00:35:55;;;;;;;;;;;;;;;;;;5074922;28;999;-67
2023/06/07 00:38:21;;;;;;;;;;;;;;;;;;5093534;28;1897;-67
2023/06/07 00:40:46;;;;;;;;;;;;;;;;;;5093072;28;817;-67
2023/06/07 00:43:11;;;;;;;;;;;;;;;;;;5075249;28;1239;-67
2023/06/07 00:45:36;;;;;;;;;;;;;;;;;;5074669;28;797;-67
2023/06/07 00:48:02;;;;;;;;;;;;;;;;;;5075098;28;1334;-67
2023/06/07 00:50:27;;;;;;;;;;;;;;;;;;5074814;28;1298;-67
2023/06/07 00:52:52;;;;;;;;;;;;;;;;;;5074356;28;976;-67
2023/06/07 00:55:18;;;;;;;;;;;;;;;;;;5092885;28;805;-66
2023/06/07 00:57:43;;;;;;;;;;;;;;;;;;5074603;28;1955;-66
2023/06/07 01:00:15;;;;;;;;;;;;;;;;;;5074979;28;829;-66
2023/06/07 01:02:41;;;;;;;;;;;;;;;;;;5093480;28;868;-66
2023/06/07 01:05:07;;;;;;;;;;;;;;;;;;5092632;28;836;-66
2023/06/07 01:07:32;;;;;;;;;;;;;;;;;;5092120;28;1212;-66
2023/06/07 01:09:59;;;;;;;;;;;;;;;;;;5092321;28;899;-66
2023/06/07 01:12:24;;;;;;;;;;;;;;;;;;5092666;28;978;-66
2023/06/07 01:14:50;;;;;;;;;;;;;;;;;;5057514;28;826;-66
2023/06/07 01:17:24;;;;;;;;;;;;;;;;;;5092712;28;1975;-66
2023/06/07 01:19:53;;;;;;;;;;;;;;;;;;5092367;28;785;-66
2023/06/07 01:22:20;;;;;;;;;;;;;;;;;;5073984;28;1269;-66
2023/06/07 01:24:47;;;;;;;;;;;;;;;;;;5092323;28;1011;-66
2023/06/07 01:27:12;;;;;;;;;;;;;;;;;;5093691;28;837;-66
2023/06/07 01:29:38;;;;;;;;;;;;;;;;;;5074863;28;1282;-66
2023/06/07 01:32:07;;;;;;;;;;;;;;;;;;5092726;28;892;-66
2023/06/07 01:34:34;;;;;;;;;;;;;;;;;;5092747;28;875;-66
2023/06/07 01:37:00;;;;;;;;;;;;;;;;;;5075082;28;608;-66
2023/06/07 01:39:26;;;;;;;;;;;;;;;;;;5074104;28;1913;-66
2023/06/07 01:41:52;;;;;;;;;;;;;;;;;;5092665;28;798;-66
2023/06/07 01:44:18;;;;;;;;;;;;;;;;;;5092190;28;884;-66
2023/06/07 01:46:44;;;;;;;;;;;;;;;;;;5074441;28;869;-66
2023/06/07 01:49:09;;;;;;;;;;;;;;;;;;5073999;28;1299;-66
2023/06/07 01:51:35;;;;;;;;;;;;;;;;;;5056961;28;1177;-66
2023/06/07 01:54:00;;;;;;;;;;;;;;;;;;5073966;28;829;-66
2023/06/07 01:56:44;;;;;;;;;;;;;;;;;;5073838;28;987;-65
2023/06/07 01:59:10;;;;;;;;;;;;;;;;;;5091943;28;2016;-65
2023/06/07 02:01:54;;;;;;;;;;;;;;;;;;5091939;28;932;-65
2023/06/07 02:04:22;;;;;;;;;;;;;;;;;;5092125;28;809;-66
2023/06/07 02:06:48;;;;;;;;;;;;;;;;;;5091525;28;1278;-65
2023/06/07 02:09:15;;;;;;;;;;;;;;;;;;5074145;28;1304;-66
2023/06/07 02:11:41;;;;;;;;;;;;;;;;;;5057291;28;1153;-65
2023/06/07 02:14:07;;;;;;;;;;;;;;;;;;5091434;28;898;-65
2023/06/07 02:16:35;;;;;;;;;;;;;;;;;;5072737;28;1207;-66
2023/06/07 02:19:00;;;;;;;;;;;;;;;;;;5073539;28;1967;-65
2023/06/07 02:21:25;;;;;;;;;;;;;;;;;;5056700;28;1299;-66
2023/06/07 02:23:51;;;;;;;;;;;;;;;;;;5056401;28;1106;-66
2023/06/07 02:26:16;;;;;;;;;;;;;;;;;;5056783;28;1259;-65
2023/06/07 02:28:41;;;;;;;;;;;;;;;;;;5073422;28;1306;-66
2023/06/07 02:31:07;;;;;;;;;;;;;;;;;;5091381;28;916;-65
2023/06/07 02:33:32;;;;;;;;;;;;;;;;;;5091165;28;757;-66
2023/06/07 02:35:58;;;;;;;;;;;;;;;;;;5073037;28;1215;-66
2023/06/07 02:38:23;;;;;;;;;;;;;;;;;;5059466;28;1906;-66
2023/06/07 02:40:48;;;;;;;;;;;;;;;;;;5095187;28;900;-66
2023/06/07 02:43:14;;;;;;;;;;;;;;;;;;5060833;28;1231;-66
2023/06/07 02:45:39;;;;;;;;;;;;;;;;;;5095450;28;919;-66
2023/06/07 02:48:06;;;;;;;;;;;;;;;;;;5077336;28;817;-66
2023/06/07 02:50:31;;;;;;;;;;;;;;;;;;5095811;28;857;-66
2023/06/07 02:52:56;;;;;;;;;;;;;;;;;;5077545;28;896;-66
2023/06/07 02:55:22;;;;;;;;;;;;;;;;;;5095961;28;919;-66
2023/06/07 02:57:47;;;;;;;;;;;;;;;;;;5077030;28;1899;-65
2023/06/07 03:00:12;;;;;;;;;;;;;;;;;;5096091;28;904;-66
2023/06/07 03:02:38;;;;;;;;;;;;;;;;;;5077365;28;797;-66
2023/06/07 03:05:04;;;;;;;;;;;;;;;;;;5077355;28;1291;-66
2023/06/07 03:07:29;;;;;;;;;;;;;;;;;;5094841;28;1211;-67
2023/06/07 03:09:54;;;;;;;;;;;;;;;;;;5059671;28;1220;-66
2023/06/07 03:12:20;;;;;;;;;;;;;;;;;;5076855;28;869;-66
2023/06/07 03:14:45;;;;;;;;;;;;;;;;;;5076383;28;782;-66
2023/06/07 03:17:11;;;;;;;;;;;;;;;;;;5076452;28;1310;-66
2023/06/07 03:19:37;;;;;;;;;;;;;;;;;;5076511;28;1965;-66
2023/06/07 03:22:02;;;;;;;;;;;;;;;;;;5077350;28;1514;-66
2023/06/07 03:24:30;;;;;;;;;;;;;;;;;;5095056;28;903;-66
2023/06/07 03:26:57;;;;;;;;;;;;;;;;;;5076362;28;1275;-66
2023/06/07 03:29:22;;;;;;;;;;;;;;;;;;5060303;28;876;-66
2023/06/07 03:31:48;;;;;;;;;;;;;;;;;;5076517;28;821;-66
2023/06/07 03:34:13;;;;;;;;;;;;;;;;;;5095012;28;832;-66
2023/06/07 03:36:40;;;;;;;;;;;;;;;;;;5094380;28;985;-66
2023/06/07 03:39:05;;;;;;;;;;;;;;;;;;5076438;28;1910;-66
2023/06/07 03:41:31;;;;;;;;;;;;;;;;;;5094717;28;868;-66
2023/06/07 03:43:56;;;;;;;;;;;;;;;;;;5076061;28;1244;-66
2023/06/07 03:46:21;;;;;;;;;;;;;;;;;;5094350;28;758;-66
2023/06/07 03:48:46;;;;;;;;;;;;;;;;;;5076194;28;911;-67
2023/06/07 03:51:12;;;;;;;;;;;;;;;;;;5094475;28;973;-67
2023/06/07 03:53:38;;;;;;;;;;;;;;;;;;5076168;28;829;-66
2023/06/07 03:56:04;;;;;;;;;;;;;;;;;;5094494;28;1007;-66
2023/06/07 03:58:30;;;;;;;;;;;;;;;;;;5075523;28;1943;-66
2023/06/07 04:00:55;;;;;;;;;;;;;;;;;;5094626;28;845;-66
2023/06/07 04:03:28;;;;;;;;;;;;;;;;;;5094306;28;809;-67
2023/06/07 04:05:53;;;;;;;;;;;;;;;;;;5093509;28;919;-66
2023/06/07 04:08:19;;;;;;;;;;;;;;;;;;5075613;28;1196;-67
2023/06/07 04:10:45;;;;;;;;;;;;;;;;;;5094238;28;837;-66
2023/06/07 04:13:10;;;;;;;;;;;;;;;;;;5058933;28;1305;-67
2023/06/07 04:15:36;;;;;;;;;;;;;;;;;;5070630;28;1219;-67
2023/06/07 04:18:01;;;;;;;;;;;;;;;;;;5053182;28;2005;-67
2023/06/07 04:20:27;;;;;;;;;;;;;;;;;;5071924;28;1235;-67
2023/06/07 04:22:52;;;;;;;;;;;;;;;;;;5058505;28;1180;-67
2023/06/07 04:25:21;;;;;;;;;;;;;;;;;;5056975;28;1169;-67
2023/06/07 04:27:48;;;;;;;;;;;;;;;;;;5092641;28;1028;-67
2023/06/07 04:30:15;;;;;;;;;;;;;;;;;;5075139;28;1413;-67
2023/06/07 04:32:41;;;;;;;;;;;;;;;;;;5093513;28;868;-67
2023/06/07 04:35:06;;;;;;;;;;;;;;;;;;5092338;28;1128;-67
2023/06/07 04:37:32;;;;;;;;;;;;;;;;;;5058859;28;1956;-67
2023/06/07 04:39:57;;;;;;;;;;;;;;;;;;5093744;28;884;-67
2023/06/07 04:42:23;;;;;;;;;;;;;;;;;;5075853;28;988;-67
2023/06/07 04:44:50;;;;;;;;;;;;;;;;;;5075476;28;1259;-67
2023/06/07 04:47:17;;;;;;;;;;;;;;;;;;5092651;28;1183;-67
2023/06/07 04:49:42;;;;;;;;;;;;;;;;;;5091961;28;1168;-67
2023/06/07 04:52:08;;;;;;;;;;;;;;;;;;5093472;28;973;-67
2023/06/07 04:54:36;;;;;;;;;;;;;;;;;;5059266;28;810;-67
2023/06/07 04:57:01;;;;;;;;;;;;;;;;;;5074602;28;795;-67
2023/06/07 04:59:29;;;;;;;;;;;;;;;;;;5074428;28;1913;-67
2023/06/07 05:01:54;;;;;;;;;;;;;;;;;;5092337;28;848;-67
2023/06/07 05:04:20;;;;;;;;;;;;;;;;;;5075290;28;860;-67
2023/06/07 05:06:46;;;;;;;;;;;;;;;;;;5074405;28;1552;-67
2023/06/07 05:09:11;;;;;;;;;;;;;;;;;;5058134;28;829;-67
2023/06/07 05:11:37;;;;;;;;;;;;;;;;;;5074622;28;782;-68
2023/06/07 05:14:02;;;;;;;;;;;;;;;;;;5074779;28;1215;-67
2023/06/07 05:16:27;;;;;;;;;;;;;;;;;;5074865;28;880;-67
2023/06/07 05:18:53;;;;;;;;;;;;;;;;;;5074299;28;1964;-68
2023/06/07 05:21:18;;;;;;;;;;;;;;;;;;5074586;28;762;-68
2023/06/07 05:23:44;;;;;;;;;;;;;;;;;;5093170;28;865;-67
2023/06/07 05:26:09;;;;;;;;;;;;;;;;;;5092548;28;841;-67
2023/06/07 05:28:35;;;;;;;;;;;;;;;;;;5092629;28;828;-68
2023/06/07 05:31:01;;;;;;;;;;;;;;;;;;5072830;28;984;-66
2023/06/07 05:33:28;;;;;;;;;;;;;;;;;;5092548;28;896;-67
2023/06/07 05:35:54;;;;;;;;;;;;;;;;;;5092290;28;801;-67
2023/06/07 05:38:19;;;;;;;;;;;;;;;;;;5092071;28;1968;-65
2023/06/07 05:40:44;;;;;;;;;;;;;;;;;;5074348;28;884;-66
2023/06/07 05:43:10;;;;;;;;;;;;;;;;;;5073821;28;948;-61
2023/06/07 05:45:35;;;;;;;;;;;;;;;;;;5092242;28;863;-61
2023/06/07 05:48:00;;;;;;;;;;;;;;;;;;5056242;28;841;-61
2023/06/07 05:50:26;;;;;;;;;;;;;;;;;;5092731;28;774;-62
2023/06/07 05:52:52;;;;;;;;;;;;;;;;;;5074151;28;813;-62
2023/06/07 05:55:17;;;;;;;;;;;;;;;;;;5091036;28;836;-63
2023/06/07 05:57:43;;;;;;;;;;;;;;;;;;5073392;28;1902;-62
2023/06/07 06:00:10;;;;;;;;;;;;;;;;;;5073561;28;758;-63
2023/06/07 06:02:37;;;;;;;;;;;;;;;;;;5092360;28;801;-63
2023/06/07 06:05:02;;;;;;;;;;;;;;;;;;5073086;28;869;-63
2023/06/07 06:07:27;;;;;;;;;;;;;;;;;;5091564;28;1452;-62
2023/06/07 06:09:53;;;;;;;;;;;;;;;;;;5073409;28;944;-63
2023/06/07 06:12:18;;;;;;;;;;;;;;;;;;5072411;28;852;-63
2023/06/07 06:14:43;;;;;;;;;;;;;;;;;;5073178;28;880;-63
2023/06/07 06:17:09;;;;;;;;;;;;;;;;;;5091425;28;959;-63
2023/06/07 06:19:34;;;;;;;;;;;;;;;;;;5091393;28;1914;-63
2023/06/07 06:22:00;;;;;;;;;;;;;;;;;;5091477;28;743;-63
2023/06/07 06:24:25;;;;;;;;;;;;;;;;;;5072872;28;926;-63
2023/06/07 06:26:50;;;;;;;;;;;;;;;;;;5091436;28;813;-63
2023/06/07 06:29:16;;;;;;;;;;;;;;;;;;5090112;28;801;-64
2023/06/07 06:31:43;;;;;;;;;;;;;;;;;;5072522;28;865;-63
2023/06/07 06:34:08;;;;;;;;;;;;;;;;;;5056233;28;1300;-64
2023/06/07 06:36:34;;;;;;;;;;;;;;;;;;5072926;28;1274;-64
2023/06/07 06:38:59;;;;;;;;;;;;;;;;;;5072513;28;1959;-64
2023/06/07 06:41:25;;;;;;;;;;;;;;;;;;5072867;28;813;-63
2023/06/07 06:43:50;;;;;;;;;;;;;;;;;;5073033;28;1117;-63
2023/06/07 06:46:16;;;;;;;;;;;;;;;;;;5072817;28;1036;-63
2023/06/07 06:48:41;;;;;;;;;;;;;;;;;;5091885;28;836;-64
2023/06/07 06:51:06;;;;;;;;;;;;;;;;;;5090601;28;829;-63
2023/06/07 06:53:33;;;;;;;;;;;;;;;;;;5091391;28;801;-63
2023/06/07 06:55:58;;;;;;;;;;;;;;;;;;5091086;28;836;-63
2023/06/07 06:58:23;;;;;;;;;;;;;;;;;;5072760;28;1898;-63
2023/06/07 07:00:49;;;;;;;;;;;;;;;;;;5056504;28;1234;-64
2023/06/07 07:03:14;;;;;;;;;;;;;;;;;;5073812;28;1215;-64
2023/06/07 07:05:39;;;;;;;;;;;;;;;;;;5056661;28;1366;-64
2023/06/07 07:08:06;;;;;;;;;;;;;;;;;;5090890;28;1215;-63
2023/06/07 07:10:31;;;;;;;;;;;;;;;;;;5073756;28;821;-64
2023/06/07 07:12:57;;;;;;;;;;;;;;;;;;5056568;28;1197;-63
2023/06/07 07:15:22;;;;;;;;;;;;;;;;;;5072984;28;1187;-63
2023/06/07 07:17:48;;;;;;;;;;;;;;;;;;5073185;28;1910;-63
2023/06/07 07:20:14;;;;;;;;;;;;;;;;;;5091287;28;888;-63
2023/06/07 07:22:40;;;;;;;;;;;;;;;;;;5073487;28;935;-63
2023/06/07 07:25:05;;;;;;;;;;;;;;;;;;5094534;28;877;-63
2023/06/07 07:27:31;;;;;;;;;;;;;;;;;;5076773;28;1192;-63
2023/06/07 07:29:57;;;;;;;;;;;;;;;;;;5060021;28;865;-63
2023/06/07 07:32:22;;;;;;;;;;;;;;;;;;5093837;28;795;-63
2023/06/07 07:34:47;;;;;;;;;;;;;;;;;;5059263;28;687;-63
2023/06/07 07:37:14;;;;;;;;;;;;;;;;;;5076324;28;813;-64
2023/06/07 07:39:39;;;;;;;;;;;;;;;;;;5076212;28;1898;-63
2023/06/07 07:42:05;;;;;;;;;;;;;;;;;;5076240;28;856;-63
2023/06/07 07:44:30;;;;;;;;;;;;;;;;;;5076298;28;841;-63
2023/06/07 07:46:56;;;;;;;;;;;;;;;;;;5076611;28;1266;-63
2023/06/07 07:49:21;;;;;;;;;;;;;;;;;;5075513;28;1458;-63
2023/06/07 07:51:46;;;;;;;;;;;;;;;;;;5075635;28;1667;-63
2023/06/07 07:54:12;;;;;;;;;;;;;;;;;;5093811;28;849;-63
2023/06/07 07:56:38;;;;;;;;;;;;;;;;;;5094636;28;888;-63
2023/06/07 07:59:03;;;;;;;;;;;;;;;;;;5076084;28;1949;-69
2023/06/07 08:01:28;;;;;;;;;;;;;;;;;;5093494;28;880;-69
2023/06/07 08:03:54;;;;;;;;;;;;;;;;;;5075380;28;1298;-69
2023/06/07 08:06:20;;;;;;;;;;;;;;;;;;5093577;28;949;-69
2023/06/07 08:08:46;;;;;;;;;;;;;;;;;;5093461;28;1270;-69
2023/06/07 08:11:11;;;;;;;;;;;;;;;;;;5058688;28;1251;-69
2023/06/07 08:13:37;;;;;;;;;;;;;;;;;;5075613;28;1188;-69
2023/06/07 08:16:02;;;;;;;;;;;;;;;;;;5074736;28;1333;-63
2023/06/07 08:18:27;;;;;;;;;;;;;;;;;;5056891;28;1967;-63
2023/06/07 08:20:53;;;;;;;;;;;;;;;;;;5074541;28;848;-63
2023/06/07 08:23:18;;;;;;;;;;;;;;;;;;5092776;28;928;-61
2023/06/07 08:25:43;;;;;;;;;;;;;;;;;;5075384;28;1463;-62
2023/06/07 08:28:09;;;;;;;;;;;;;;;;;;5074469;28;1349;-62
2023/06/07 08:30:34;;;;;;;;;;;;;;;;;;5074842;28;1282;-63
2023/06/07 08:32:59;;;;;;;;;;;;;;;;;;5074678;28;1295;-62
2023/06/07 08:35:25;;;;;;;;;;;;;;;;;;5073809;28;804;-63
2023/06/07 08:37:50;;;;;;;;;;;;;;;;;;5057935;28;1894;-63
2023/06/07 08:40:19;;;;;;;;;;;;;;;;;;5092709;28;994;-63
2023/06/07 08:42:44;;;;;;;;;;;;;;;;;;5075062;28;1503;-62
2023/06/07 08:45:10;;;;;;;;;;;;;;;;;;5074984;28;888;-62
2023/06/07 08:47:36;;;;;;;;;;;;;;;;;;5093749;28;832;-63
2023/06/07 08:50:02;;;;;;;;;;;;;;;;;;5074730;28;1301;-62
2023/06/07 08:52:27;;;;;;;;;;;;;;;;;;5093261;28;1026;-63
2023/06/07 08:54:54;;;;;;;;;;;;;;;;;;5093090;28;865;-63
2023/06/07 08:57:20;;;;;;;;;;;;;;;;;;5074754;28;1215;-63
2023/06/07 08:59:45;;;;;;;;;;;;;;;;;;5093105;28;1890;-63
2023/06/07 09:02:12;;;;;;;;;;;;;;;;;;5074321;28;836;-62
2023/06/07 09:04:39;;;;;;;;;;;;;;;;;;5093039;28;884;-62
2023/06/07 09:07:06;;;;;;;;;;;;;;;;;;5074716;28;1326;-62
2023/06/07 09:09:31;;;;;;;;;;;;;;;;;;5057048;28;910;-62
2023/06/07 09:11:57;;;;;;;;;;;;;;;;;;5091986;28;797;-62
2023/06/07 09:14:22;;;;;;;;;;;;;;;;;;5091689;28;911;-62
2023/06/07 09:16:51;;;;;;;;;;;;;;;;;;5091935;28;880;-62
2023/06/07 09:19:29;;;;;;;;;;;;;;;;;;5091505;28;1918;-62
2023/06/07 09:21:56;;;;;;;;;;;;;;;;;;5073722;28;754;-62
2023/06/07 09:24:25;;;;;;;;;;;;;;;;;;5073655;28;1326;-63
2023/06/07 09:26:51;;;;;;;;;;;;;;;;;;5092341;28;900;-62
2023/06/07 09:29:16;;;;;;;;;;;;;;;;;;5091437;28;833;-62
2023/06/07 09:31:41;;;;;;;;;;;;;;;;;;5057406;28;1315;-62
2023/06/07 09:34:23;;;;;;;;;;;;;;;;;;5073342;28;1219;-63
2023/06/07 09:36:57;;;;;;;;;;;;;;;;;;5091700;28;821;-62
2023/06/07 09:39:23;;;;;;;;;;;;;;;;;;5092243;28;2022;-63
2023/06/07 09:41:50;;;;;;;;;;;;;;;;;;5073403;28;1294;-62
2023/06/07 09:44:22;;;;;;;;;;;;;;;;;;5072030;28;718;-62
2023/06/07 09:46:48;;;;;;;;;;;;;;;;;;5073143;28;1326;-62
2023/06/07 09:49:21;;;;;;;;;;;;;;;;;;5073246;28;1300;-63
2023/06/07 09:51:46;;;;;;;;;;;;;;;;;;5091702;28;825;-62
2023/06/07 09:54:11;;;;;;;;;;;;;;;;;;5072879;28;1166;-63
2023/06/07 09:56:40;;;;;;;;;;;;;;;;;;5056714;28;1197;-63
2023/06/07 09:59:09;;;;;;;;;;;;;;;;;;5072738;28;1955;-63
2023/06/07 10:01:41;;;;;;;;;;;;;;;;;;5091424;28;841;-63
2023/06/07 10:04:07;;;;;;;;;;;;;;;;;;5073071;28;1305;-63
2023/06/07 10:06:33;;;;;;;;;;;;;;;;;;5073024;28;1113;-63
2023/06/07 10:09:00;;;;;;;;;;;;;;;;;;5073291;28;706;-63
2023/06/07 10:11:26;;;;;;;;;;;;;;;;;;5091298;28;829;-63
2023/06/07 10:13:53;;;;;;;;;;;;;;;;;;5091519;28;880;-62
2023/06/07 10:16:19;;;;;;;;;;;;;;;;;;5091360;28;833;-63
2023/06/07 10:18:45;;;;;;;;;;;;;;;;;;5091447;28;1965;-63
2023/06/07 10:21:17;;;;;;;;;;;;;;;;;;5090635;28;884;-62
2023/06/07 10:23:45;;;;;;;;;;;;;;;;;;5091604;28;999;-62
2023/06/07 10:26:18;;;;;;;;;;;;;;;;;;5073144;28;1143;-62
2023/06/07 10:28:47;;;;;;;;;;;;;;;;;;5092046;28;833;-61
2023/06/07 10:31:16;;;;;;;;;;;;;;;;;;5091122;28;1014;-61
2023/06/07 10:33:42;;;;;;;;;;;;;;;;;;5092155;28;824;-62
2023/06/07 10:36:08;;;;;;;;;;;;;;;;;;5073046;28;702;-62
2023/06/07 10:38:33;;;;;;;;;;;;;;;;;;5056089;28;1898;-62
2023/06/07 10:41:00;;;;;;;;;;;;;;;;;;5090818;28;904;-62
2023/06/07 10:43:28;;;;;;;;;;;;;;;;;;5090382;28;849;-62
2023/06/07 10:46:12;;;;;;;;;;;;;;;;;;5072747;28;908;-62
2023/06/07 10:48:40;;;;;;;;;;;;;;;;;;5091203;28;840;-62
2023/06/07 10:51:05;;;;;;;;;;;;;;;;;;5072931;28;844;-62
2023/06/07 10:53:49;;;;;;;;;;;;;;;;;;5090383;28;809;-62
2023/06/07 10:56:28;;;;;;;;;;;;;;;;;;5072341;28;1224;-62
2023/06/07 10:58:53;;;;;;;;;;;;;;;;;;5093488;28;1897;-62
2023/06/07 11:01:26;;;;;;;;;;;;;;;;;;5094580;28;908;-62
2023/06/07 11:03:51;;;;;;;;;;;;;;;;;;5076355;28;1129;-62
2023/06/07 11:06:17;;;;;;;;;;;;;;;;;;5076487;28;829;-62
2023/06/07 11:08:44;;;;;;;;;;;;;;;;;;5095004;28;1207;-62
2023/06/07 11:11:28;;;;;;;;;;;;;;;;;;5094428;28;980;-62
2023/06/07 11:14:13;;;;;;;;;;;;;;;;;;5094837;28;1017;-62
2023/06/07 11:16:39;;;;;;;;;;;;;;;;;;5075953;28;1036;-61
2023/06/07 11:19:09;;;;;;;;;;;;;;;;;;5076179;28;1910;-62
2023/06/07 11:22:04;;;;;;;;;;;;;;;;;;5094046;28;821;-62
2023/06/07 11:24:29;;;;;;;;;;;;;;;;;;5090911;28;1138;-62
2023/06/07 11:26:54;;;;;;;;;;;;;;;;;;5093836;28;881;-62
2023/06/07 11:29:20;;;;;;;;;;;;;;;;;;5093807;28;884;-62
2023/06/07 11:31:58;;;;;;;;;;;;;;;;;;5094944;28;852;-62
2023/06/07 11:34:23;;;;;;;;;;;;;;;;;;5075910;28;733;-61
2023/06/07 11:36:49;;;;;;;;;;;;;;;;;;5076335;28;841;-62
2023/06/07 11:39:17;;;;;;;;;;;;;;;;;;5075879;28;1897;-62
2023/06/07 11:41:42;;;;;;;;;;;;;;;;;;5094336;28;828;-62
2023/06/07 11:44:07;;;;;;;;;;;;;;;;;;5094334;28;974;-62
2023/06/07 11:46:33;;;;;;;;;;;;;;;;;;5077178;28;911;-62
2023/06/07 11:49:07;;;;;;;;;;;;;;;;;;5076816;28;971;-61
2023/06/07 11:51:32;;;;;;;;;;;;;;;;;;5076284;28;1192;-61
2023/06/07 11:53:58;;;;;;;;;;;;;;;;;;5094945;28;1078;-62
2023/06/07 11:56:23;;;;;;;;;;;;;;;;;;5093648;28;845;-62
2023/06/07 11:58:49;;;;;;;;;;;;;;;;;;5094517;28;1898;-61
2023/06/07 12:01:15;;;;;;;;;;;;;;;;;;5094733;28;850;-62
2023/06/07 12:03:40;;;;;;;;;;;;;;;;;;5076926;28;1201;-62
2023/06/07 12:06:06;;;;;;;;;;;;;;;;;;5076853;28;1217;-64
2023/06/07 12:08:32;;;;;;;;;;;;;;;;;;5093109;28;1203;-61
2023/06/07 12:10:57;;;;;;;;;;;;;;;;;;5092428;28;837;-61
2023/06/07 12:13:23;;;;;;;;;;;;;;;;;;5075830;28;904;-61
2023/06/07 12:15:49;;;;;;;;;;;;;;;;;;5075778;28;1206;-61
2023/06/07 12:18:16;;;;;;;;;;;;;;;;;;5093110;28;1921;-61
2023/06/07 12:20:42;;;;;;;;;;;;;;;;;;5093847;28;860;-61
2023/06/07 12:23:08;;;;;;;;;;;;;;;;;;5075185;28;1406;-61
2023/06/07 12:25:34;;;;;;;;;;;;;;;;;;5093158;28;895;-61
2023/06/07 12:28:03;;;;;;;;;;;;;;;;;;5093443;28;876;-61
2023/06/07 12:30:32;;;;;;;;;;;;;;;;;;5092914;28;856;-63
2023/06/07 12:32:59;;;;;;;;;;;;;;;;;;5092652;28;829;-63
2023/06/07 12:35:24;;;;;;;;;;;;;;;;;;5092304;28;825;-61
2023/06/07 12:37:49;;;;;;;;;;;;;;;;;;5093322;28;1953;-63
2023/06/07 12:40:15;;;;;;;;;;;;;;;;;;5072725;28;971;-63
2023/06/07 12:42:40;;;;;;;;;;;;;;;;;;5091723;28;793;-63
2023/06/07 12:45:07;;;;;;;;;;;;;;;;;;5092522;28;880;-63
2023/06/07 12:47:32;;;;;;;;;;;;;;;;;;5074444;28;931;-63
2023/06/07 12:49:58;;;;;;;;;;;;;;;;;;5074319;28;1194;-63
2023/06/07 12:52:23;;;;;;;;;;;;;;;;;;5091955;28;896;-63
2023/06/07 12:54:48;;;;;;;;;;;;;;;;;;5092547;28;865;-63
2023/06/07 12:57:14;;;;;;;;;;;;;;;;;;5092837;28;935;-63
2023/06/07 12:59:39;;;;;;;;;;;;;;;;;;5057523;28;1965;-63
2023/06/07 13:02:05;;;;;;;;;;;;;;;;;;5092393;28;884;-63
2023/06/07 13:04:30;;;;;;;;;;;;;;;;;;5073534;28;1481;-63
2023/06/07 13:06:55;;;;;;;;;;;;;;;;;;5092933;28;1203;-63
2023/06/07 13:09:21;;;;;;;;;;;;;;;;;;5073644;28;1306;-63
2023/06/07 13:11:46;;;;;;;;;;;;;;;;;;5074448;28;809;-63
2023/06/07 13:14:12;;;;;;;;;;;;;;;;;;5074976;28;787;-63
2023/06/07 13:16:37;;;;;;;;;;;;;;;;;;5092799;28;856;-63
2023/06/07 13:19:03;;;;;;;;;;;;;;;;;;5092929;28;1913;-63
2023/06/07 13:21:28;;;;;;;;;;;;;;;;;;5057047;28;1236;-63
2023/06/07 13:23:53;;;;;;;;;;;;;;;;;;5074747;28;902;-63
2023/06/07 13:26:19;;;;;;;;;;;;;;;;;;5073783;28;1092;-63
2023/06/07 13:28:45;;;;;;;;;;;;;;;;;;5074872;28;1441;-63
2023/06/07 13:31:11;;;;;;;;;;;;;;;;;;5073965;28;1166;-63
2023/06/07 13:33:37;;;;;;;;;;;;;;;;;;5056549;28;1524;-63
2023/06/07 13:36:02;;;;;;;;;;;;;;;;;;5074273;28;662;-63
2023/06/07 13:38:27;;;;;;;;;;;;;;;;;;5056377;28;1918;-63
2023/06/07 13:40:52;;;;;;;;;;;;;;;;;;5073656;28;1513;-64
2023/06/07 13:43:18;;;;;;;;;;;;;;;;;;5091852;28;773;-63
2023/06/07 13:45:43;;;;;;;;;;;;;;;;;;5073529;28;951;-63
2023/06/07 13:48:11;;;;;;;;;;;;;;;;;;5073865;28;872;-63
2023/06/07 13:50:38;;;;;;;;;;;;;;;;;;5091506;28;1077;-63
2023/06/07 13:53:04;;;;;;;;;;;;;;;;;;5073385;28;1600;-63
2023/06/07 13:55:29;;;;;;;;;;;;;;;;;;5090719;28;896;-63
2023/06/07 13:57:55;;;;;;;;;;;;;;;;;;5073439;28;1955;-63
2023/06/07 14:00:21;;;;;;;;;;;;;;;;;;5072742;28;1227;-61
2023/06/07 14:02:46;;;;;;;;;;;;;;;;;;5072722;28;1212;-61
2023/06/07 14:05:13;;;;;;;;;;;;;;;;;;5089918;28;903;-61
2023/06/07 14:07:39;;;;;;;;;;;;;;;;;;5071876;28;1112;-61
2023/06/07 14:10:04;;;;;;;;;;;;;;;;;;5073235;28;904;-62
2023/06/07 14:12:29;;;;;;;;;;;;;;;;;;5072826;28;850;-61
2023/06/07 14:14:55;;;;;;;;;;;;;;;;;;5091306;28;876;-62
2023/06/07 14:17:20;;;;;;;;;;;;;;;;;;5073285;28;892;-62
2023/06/07 14:19:45;;;;;;;;;;;;;;;;;;5072707;28;1985;-63
2023/06/07 14:22:11;;;;;;;;;;;;;;;;;;5091458;28;828;-62
2023/06/07 14:24:36;;;;;;;;;;;;;;;;;;5072433;28;1321;-62
2023/06/07 14:27:01;;;;;;;;;;;;;;;;;;5072852;28;1243;-63
2023/06/07 14:29:26;;;;;;;;;;;;;;;;;;5054689;28;1157;-62
2023/06/07 14:31:52;;;;;;;;;;;;;;;;;;5074528;28;1173;-63
2023/06/07 14:34:17;;;;;;;;;;;;;;;;;;5074297;28;1193;-62
2023/06/07 14:36:43;;;;;;;;;;;;;;;;;;5059059;28;1220;-63
2023/06/07 14:39:09;;;;;;;;;;;;;;;;;;5076029;28;1911;-63
2023/06/07 14:41:34;;;;;;;;;;;;;;;;;;5094747;28;853;-62
2023/06/07 14:43:59;;;;;;;;;;;;;;;;;;5060617;28;1110;-62
2023/06/07 14:46:25;;;;;;;;;;;;;;;;;;5075960;28;1180;-63
2023/06/07 14:48:50;;;;;;;;;;;;;;;;;;5094295;28;1161;-62
2023/06/07 14:51:17;;;;;;;;;;;;;;;;;;5077268;28;1224;-63
2023/06/07 14:53:43;;;;;;;;;;;;;;;;;;5060926;28;1514;-63
2023/06/07 14:56:08;;;;;;;;;;;;;;;;;;5077498;28;1167;-63
2023/06/07 14:58:33;;;;;;;;;;;;;;;;;;5076873;28;1914;-63
2023/06/07 15:00:58;;;;;;;;;;;;;;;;;;5077470;28;841;-62
2023/06/07 15:03:24;;;;;;;;;;;;;;;;;;5095371;28;769;-62
2023/06/07 15:05:49;;;;;;;;;;;;;;;;;;5077077;28;881;-63
2023/06/07 15:08:15;;;;;;;;;;;;;;;;;;5059684;28;1220;-63
2023/06/07 15:10:41;;;;;;;;;;;;;;;;;;5077191;28;841;-61
2023/06/07 15:13:07;;;;;;;;;;;;;;;;;;5076595;28;1528;-63
2023/06/07 15:15:32;;;;;;;;;;;;;;;;;;5059634;28;1414;-63
2023/06/07 15:17:57;;;;;;;;;;;;;;;;;;5076383;28;1906;-62
2023/06/07 15:20:23;;;;;;;;;;;;;;;;;;5075473;28;1227;-62
2023/06/07 15:22:50;;;;;;;;;;;;;;;;;;5076651;28;1172;-62
2023/06/07 15:25:15;;;;;;;;;;;;;;;;;;5094202;28;1144;-62
2023/06/07 15:27:40;;;;;;;;;;;;;;;;;;5066105;28;1208;-62
2023/06/07 15:30:06;;;;;;;;;;;;;;;;;;5073897;28;1169;-62
2023/06/07 15:32:31;;;;;;;;;;;;;;;;;;5038812;28;1250;-62
2023/06/07 15:34:57;;;;;;;;;;;;;;;;;;5074184;28;849;-62
2023/06/07 15:37:22;;;;;;;;;;;;;;;;;;5073367;28;844;-62
2023/06/07 15:39:47;;;;;;;;;;;;;;;;;;5056338;28;1965;-62
2023/06/07 15:42:13;;;;;;;;;;;;;;;;;;5073983;28;931;-62
2023/06/07 15:44:39;;;;;;;;;;;;;;;;;;5038218;28;1212;-61
2023/06/07 15:47:04;;;;;;;;;;;;;;;;;;5055835;28;1222;-62
2023/06/07 15:49:30;;;;;;;;;;;;;;;;;;5055258;28;782;-62
2023/06/07 15:51:55;;;;;;;;;;;;;;;;;;5055487;28;1323;-62
2023/06/07 15:54:21;;;;;;;;;;;;;;;;;;5054988;28;1162;-62
2023/06/07 15:56:46;;;;;;;;;;;;;;;;;;5072963;28;809;-62
2023/06/07 15:59:11;;;;;;;;;;;;;;;;;;5073415;28;1967;-62
2023/06/07 16:01:37;;;;;;;;;;;;;;;;;;5055195;28;785;-63
2023/06/07 16:04:03;;;;;;;;;;;;;;;;;;5055346;28;1294;-62
2023/06/07 16:06:28;;;;;;;;;;;;;;;;;;5055188;28;884;-62
2023/06/07 16:08:54;;;;;;;;;;;;;;;;;;5054898;28;1251;-62
2023/06/07 16:11:19;;;;;;;;;;;;;;;;;;5073077;28;958;-62
2023/06/07 16:13:44;;;;;;;;;;;;;;;;;;5055041;28;738;-62
2023/06/07 16:16:09;;;;;;;;;;;;;;;;;;5055183;28;758;-62
2023/06/07 16:18:36;;;;;;;;;;;;;;;;;;5072490;28;1910;-62
2023/06/07 16:21:02;;;;;;;;;;;;;;;;;;5054563;28;1321;-62
2023/06/07 16:23:27;;;;;;;;;;;;;;;;;;5054698;28;1330;-63
2023/06/07 16:25:53;;;;;;;;;;;;;;;;;;5054511;28;1341;-62
2023/06/07 16:28:19;;;;;;;;;;;;;;;;;;5072193;28;1156;-62
2023/06/07 16:30:44;;;;;;;;;;;;;;;;;;5073250;28;1192;-62
2023/06/07 16:33:10;;;;;;;;;;;;;;;;;;5074865;28;1168;-62
2023/06/07 16:35:35;;;;;;;;;;;;;;;;;;5074843;28;1157;-62
2023/06/07 16:38:00;;;;;;;;;;;;;;;;;;5093589;28;1957;-62
2023/06/07 16:40:25;;;;;;;;;;;;;;;;;;5093442;28;766;-62
2023/06/07 16:42:51;;;;;;;;;;;;;;;;;;5074954;28;1318;-63
2023/06/07 16:45:16;;;;;;;;;;;;;;;;;;5075158;28;1288;-61
2023/06/07 16:47:41;;;;;;;;;;;;;;;;;;5074645;28;916;-61
2023/06/07 16:50:07;;;;;;;;;;;;;;;;;;5092705;28;836;-61
2023/06/07 16:52:32;;;;;;;;;;;;;;;;;;5092401;28;829;-62
2023/06/07 16:54:58;;;;;;;;;;;;;;;;;;5092974;28;833;-61
2023/06/07 16:57:23;;;;;;;;;;;;;;;;;;5091969;28;999;-62
2023/06/07 16:59:49;;;;;;;;;;;;;;;;;;5092660;28;1977;-62
2023/06/07 17:02:14;;;;;;;;;;;;;;;;;;5074382;28;908;-62
2023/06/07 17:04:40;;;;;;;;;;;;;;;;;;5092348;28;864;-62
2023/06/07 17:07:05;;;;;;;;;;;;;;;;;;5092248;28;884;-62